sensor_id;sensor_type;location;lat;lon;timestamp;temperature;humidity
2889;DHT22;1453;42.708;23.282;2022-07-29T00:00:44;21.10;99.90
2889;DHT22;1453;42.708;23.282;2022-07-29T00:03:13;21.10;99.90
2889;DHT22;1453;42.708;23.282;2022-07-29T00:05:42;21.20;99.90
2889;DHT22;1453;42.708;23.282;2022-07-29T00:08:08;21.10;99.90
2889;DHT22;1453;42.708;23.282;2022-07-29T00:10:35;21.00;99.90
2889;DHT22;1453;42.708;23.282;2022-07-29T00:13:01;20.60;99.90
2889;DHT22;1453;42.708;23.282;2022-07-29T00:15:27;20.40;99.90
2889;DHT22;1453;42.708;23.282;2022-07-29T00:17:53;20.10;99.90
2889;DHT22;1453;42.708;23.282;2022-07-29T00:20:19;19.90;99.90
2889;DHT22;1453;42.708;23.282;2022-07-29T00:22:45;19.80;99.90
2889;DHT22;1453;42.708;23.282;2022-07-29T00:25:12;20.00;99.90
2889;DHT22;1453;42.708;23.282;2022-07-29T00:27:39;20.10;99.90
2889;DHT22;1453;42.708;23.282;2022-07-29T00:30:06;20.10;99.90
2889;DHT22;1453;42.708;23.282;2022-07-29T00:32:32;20.10;99.90
2889;DHT22;1453;42.708;23.282;2022-07-29T00:34:58;19.60;99.90
2889;DHT22;1453;42.708;23.282;2022-07-29T00:37:42;19.60;99.90
2889;DHT22;1453;42.708;23.282;2022-07-29T00:40:08;19.50;99.90
2889;DHT22;1453;42.708;23.282;2022-07-29T00:42:48;19.50;99.90
2889;DHT22;1453;42.708;23.282;2022-07-29T00:45:16;19.40;99.90
2889;DHT22;1453;42.708;23.282;2022-07-29T00:47:42;19.30;99.90
2889;DHT22;1453;42.708;23.282;2022-07-29T00:50:10;19.00;99.90
2889;DHT22;1453;42.708;23.282;2022-07-29T00:52:39;18.90;99.90
2889;DHT22;1453;42.708;23.282;2022-07-29T00:55:09;18.90;99.90
2889;DHT22;1453;42.708;23.282;2022-07-29T00:57:37;18.70;99.90
2889;DHT22;1453;42.708;23.282;2022-07-29T01:00:06;18.80;99.90
2889;DHT22;1453;42.708;23.282;2022-07-29T01:02:33;18.80;99.90
2889;DHT22;1453;42.708;23.282;2022-07-29T01:05:00;18.50;99.90
2889;DHT22;1453;42.708;23.282;2022-07-29T01:07:27;18.20;99.90
2889;DHT22;1453;42.708;23.282;2022-07-29T01:09:53;18.20;99.90
2889;DHT22;1453;42.708;23.282;2022-07-29T01:12:24;18.50;99.90
2889;DHT22;1453;42.708;23.282;2022-07-29T01:14:52;18.80;99.90
2889;DHT22;1453;42.708;23.282;2022-07-29T01:18:24;19.10;99.90
2889;DHT22;1453;42.708;23.282;2022-07-29T01:23:58;19.30;99.90
2889;DHT22;1453;42.708;23.282;2022-07-29T01:32:01;19.60;99.90
2889;DHT22;1453;42.708;23.282;2022-07-29T01:34:50;19.60;99.90
2889;DHT22;1453;42.708;23.282;2022-07-29T01:37:29;19.60;99.90
2889;DHT22;1453;42.708;23.282;2022-07-29T01:39:59;19.70;99.90
2889;DHT22;1453;42.708;23.282;2022-07-29T01:42:36;19.80;99.90
2889;DHT22;1453;42.708;23.282;2022-07-29T01:48:31;18.70;99.90
2889;DHT22;1453;42.708;23.282;2022-07-29T01:54:13;18.80;99.90
2889;DHT22;1453;42.708;23.282;2022-07-29T01:56:43;18.90;99.90
2889;DHT22;1453;42.708;23.282;2022-07-29T01:59:11;19.30;99.90
2889;DHT22;1453;42.708;23.282;2022-07-29T02:01:39;19.50;99.90
2889;DHT22;1453;42.708;23.282;2022-07-29T02:04:07;19.80;99.90
2889;DHT22;1453;42.708;23.282;2022-07-29T02:06:37;19.10;99.90
2889;DHT22;1453;42.708;23.282;2022-07-29T02:09:06;18.40;99.90
2889;DHT22;1453;42.708;23.282;2022-07-29T02:11:33;18.30;99.90
2889;DHT22;1453;42.708;23.282;2022-07-29T02:14:01;18.30;99.90
2889;DHT22;1453;42.708;23.282;2022-07-29T02:16:30;18.30;99.90
2889;DHT22;1453;42.708;23.282;2022-07-29T02:18:58;18.30;99.90
2889;DHT22;1453;42.708;23.282;2022-07-29T02:21:27;18.40;99.90
2889;DHT22;1453;42.708;23.282;2022-07-29T02:23:56;18.40;99.90
2889;DHT22;1453;42.708;23.282;2022-07-29T02:26:24;18.40;99.90
2889;DHT22;1453;42.708;23.282;2022-07-29T02:28:53;18.40;99.90
2889;DHT22;1453;42.708;23.282;2022-07-29T02:31:28;18.40;99.90
2889;DHT22;1453;42.708;23.282;2022-07-29T02:33:57;18.40;99.90
2889;DHT22;1453;42.708;23.282;2022-07-29T02:36:24;18.50;99.90
2889;DHT22;1453;42.708;23.282;2022-07-29T02:38:52;18.60;99.90
2889;DHT22;1453;42.708;23.282;2022-07-29T02:41:24;19.10;99.90
2889;DHT22;1453;42.708;23.282;2022-07-29T02:43:57;19.30;99.90
2889;DHT22;1453;42.708;23.282;2022-07-29T02:46:32;19.40;99.90
2889;DHT22;1453;42.708;23.282;2022-07-29T02:49:10;19.40;99.90
2889;DHT22;1453;42.708;23.282;2022-07-29T02:51:59;19.60;99.90
2889;DHT22;1453;42.708;23.282;2022-07-29T02:54:44;19.70;99.90
2889;DHT22;1453;42.708;23.282;2022-07-29T02:57:21;19.70;99.90
2889;DHT22;1453;42.708;23.282;2022-07-29T02:59:58;19.60;99.90
2889;DHT22;1453;42.708;23.282;2022-07-29T03:02:27;19.70;99.90
2889;DHT22;1453;42.708;23.282;2022-07-29T03:04:55;19.60;99.90
2889;DHT22;1453;42.708;23.282;2022-07-29T03:07:23;19.60;99.90
2889;DHT22;1453;42.708;23.282;2022-07-29T03:09:50;19.60;99.90
2889;DHT22;1453;42.708;23.282;2022-07-29T03:12:16;19.60;99.90
2889;DHT22;1453;42.708;23.282;2022-07-29T03:14:43;19.70;99.90
2889;DHT22;1453;42.708;23.282;2022-07-29T03:17:10;19.70;99.90
2889;DHT22;1453;42.708;23.282;2022-07-29T03:19:36;19.60;99.90
2889;DHT22;1453;42.708;23.282;2022-07-29T03:22:02;19.50;99.90
2889;DHT22;1453;42.708;23.282;2022-07-29T03:24:34;19.50;99.90
2889;DHT22;1453;42.708;23.282;2022-07-29T03:27:01;19.40;99.90
2889;DHT22;1453;42.708;23.282;2022-07-29T03:29:28;19.20;99.90
2889;DHT22;1453;42.708;23.282;2022-07-29T03:31:54;19.30;99.90
2889;DHT22;1453;42.708;23.282;2022-07-29T03:34:20;19.40;99.90
2889;DHT22;1453;42.708;23.282;2022-07-29T03:36:47;19.20;99.90
2889;DHT22;1453;42.708;23.282;2022-07-29T03:39:17;19.40;99.90
2889;DHT22;1453;42.708;23.282;2022-07-29T03:41:46;19.10;99.90
2889;DHT22;1453;42.708;23.282;2022-07-29T03:44:13;18.70;99.90
2889;DHT22;1453;42.708;23.282;2022-07-29T03:46:41;18.40;99.90
2889;DHT22;1453;42.708;23.282;2022-07-29T03:49:10;18.30;99.90
2889;DHT22;1453;42.708;23.282;2022-07-29T03:51:36;18.40;99.90
2889;DHT22;1453;42.708;23.282;2022-07-29T03:54:03;18.40;99.90
2889;DHT22;1453;42.708;23.282;2022-07-29T03:56:32;18.30;99.90
2889;DHT22;1453;42.708;23.282;2022-07-29T03:59:01;18.50;99.90
2889;DHT22;1453;42.708;23.282;2022-07-29T04:01:29;18.60;99.90
2889;DHT22;1453;42.708;23.282;2022-07-29T04:03:55;18.60;99.90
2889;DHT22;1453;42.708;23.282;2022-07-29T04:06:22;18.50;99.90
2889;DHT22;1453;42.708;23.282;2022-07-29T04:08:47;18.60;99.90
2889;DHT22;1453;42.708;23.282;2022-07-29T04:11:13;18.60;99.90
2889;DHT22;1453;42.708;23.282;2022-07-29T04:13:39;18.60;99.90
2889;DHT22;1453;42.708;23.282;2022-07-29T04:16:05;18.80;99.90
2889;DHT22;1453;42.708;23.282;2022-07-29T04:18:31;19.10;99.90
2889;DHT22;1453;42.708;23.282;2022-07-29T04:20:56;19.30;99.90
2889;DHT22;1453;42.708;23.282;2022-07-29T04:23:26;19.40;99.90
2889;DHT22;1453;42.708;23.282;2022-07-29T04:25:52;19.70;99.90
2889;DHT22;1453;42.708;23.282;2022-07-29T04:28:18;19.80;99.90
2889;DHT22;1453;42.708;23.282;2022-07-29T04:30:44;19.50;99.90
2889;DHT22;1453;42.708;23.282;2022-07-29T04:33:10;19.30;99.90
2889;DHT22;1453;42.708;23.282;2022-07-29T04:35:36;19.30;99.90
2889;DHT22;1453;42.708;23.282;2022-07-29T04:38:04;19.30;99.90
2889;DHT22;1453;42.708;23.282;2022-07-29T04:40:31;19.50;99.90
2889;DHT22;1453;42.708;23.282;2022-07-29T04:42:59;19.80;99.90
2889;DHT22;1453;42.708;23.282;2022-07-29T04:45:26;20.10;99.90
2889;DHT22;1453;42.708;23.282;2022-07-29T04:47:52;20.20;99.90
2889;DHT22;1453;42.708;23.282;2022-07-29T04:50:18;20.40;99.90
2889;DHT22;1453;42.708;23.282;2022-07-29T04:52:44;20.20;99.90
2889;DHT22;1453;42.708;23.282;2022-07-29T04:55:10;19.90;99.90
2889;DHT22;1453;42.708;23.282;2022-07-29T04:57:35;19.90;99.90
2889;DHT22;1453;42.708;23.282;2022-07-29T05:00:02;20.20;99.90
2889;DHT22;1453;42.708;23.282;2022-07-29T05:02:29;20.30;99.90
2889;DHT22;1453;42.708;23.282;2022-07-29T05:04:55;20.40;99.90
2889;DHT22;1453;42.708;23.282;2022-07-29T05:07:21;20.60;99.90
2889;DHT22;1453;42.708;23.282;2022-07-29T05:09:47;20.70;99.90
2889;DHT22;1453;42.708;23.282;2022-07-29T05:12:12;20.70;99.90
2889;DHT22;1453;42.708;23.282;2022-07-29T05:14:38;20.80;99.90
2889;DHT22;1453;42.708;23.282;2022-07-29T05:17:04;20.90;99.90
2889;DHT22;1453;42.708;23.282;2022-07-29T05:19:30;21.00;99.90
2889;DHT22;1453;42.708;23.282;2022-07-29T05:21:57;21.20;99.90
2889;DHT22;1453;42.708;23.282;2022-07-29T05:24:23;21.50;99.90
2889;DHT22;1453;42.708;23.282;2022-07-29T05:26:48;21.40;99.90
2889;DHT22;1453;42.708;23.282;2022-07-29T05:29:14;21.70;99.90
2889;DHT22;1453;42.708;23.282;2022-07-29T05:31:40;21.90;99.90
2889;DHT22;1453;42.708;23.282;2022-07-29T05:34:06;22.20;99.90
2889;DHT22;1453;42.708;23.282;2022-07-29T05:36:32;22.70;99.90
2889;DHT22;1453;42.708;23.282;2022-07-29T05:38:58;22.60;99.90
2889;DHT22;1453;42.708;23.282;2022-07-29T05:41:23;22.60;99.90
2889;DHT22;1453;42.708;23.282;2022-07-29T05:43:49;22.60;99.90
2889;DHT22;1453;42.708;23.282;2022-07-29T05:46:15;22.70;99.90
2889;DHT22;1453;42.708;23.282;2022-07-29T05:48:41;22.90;99.90
2889;DHT22;1453;42.708;23.282;2022-07-29T05:51:07;23.20;99.90
2889;DHT22;1453;42.708;23.282;2022-07-29T05:53:32;23.60;99.90
2889;DHT22;1453;42.708;23.282;2022-07-29T05:56:03;23.00;99.90
2889;DHT22;1453;42.708;23.282;2022-07-29T05:58:30;23.50;99.90
2889;DHT22;1453;42.708;23.282;2022-07-29T06:00:56;24.00;99.90
2889;DHT22;1453;42.708;23.282;2022-07-29T06:03:25;24.50;99.90
2889;DHT22;1453;42.708;23.282;2022-07-29T06:05:51;24.70;99.90
2889;DHT22;1453;42.708;23.282;2022-07-29T06:08:17;24.80;99.90
2889;DHT22;1453;42.708;23.282;2022-07-29T06:10:43;24.60;99.90
2889;DHT22;1453;42.708;23.282;2022-07-29T06:13:09;23.60;99.90
2889;DHT22;1453;42.708;23.282;2022-07-29T06:15:35;24.20;99.90
2889;DHT22;1453;42.708;23.282;2022-07-29T06:18:01;24.60;99.90
2889;DHT22;1453;42.708;23.282;2022-07-29T06:20:28;24.80;99.90
2889;DHT22;1453;42.708;23.282;2022-07-29T06:22:55;25.20;99.90
2889;DHT22;1453;42.708;23.282;2022-07-29T06:25:21;25.10;99.90
2889;DHT22;1453;42.708;23.282;2022-07-29T06:27:47;25.30;99.90
2889;DHT22;1453;42.708;23.282;2022-07-29T06:30:13;25.40;99.90
2889;DHT22;1453;42.708;23.282;2022-07-29T06:32:39;24.80;99.90
2889;DHT22;1453;42.708;23.282;2022-07-29T06:35:05;24.70;99.90
2889;DHT22;1453;42.708;23.282;2022-07-29T06:37:31;25.60;99.90
2889;DHT22;1453;42.708;23.282;2022-07-29T06:39:57;25.60;99.90
2889;DHT22;1453;42.708;23.282;2022-07-29T06:42:43;25.20;99.90
2889;DHT22;1453;42.708;23.282;2022-07-29T06:45:10;25.40;99.90
2889;DHT22;1453;42.708;23.282;2022-07-29T06:47:37;25.10;99.90
2889;DHT22;1453;42.708;23.282;2022-07-29T06:50:03;25.10;99.90
2889;DHT22;1453;42.708;23.282;2022-07-29T06:52:30;25.10;99.90
2889;DHT22;1453;42.708;23.282;2022-07-29T06:54:56;25.10;99.90
2889;DHT22;1453;42.708;23.282;2022-07-29T06:57:22;26.30;99.90
2889;DHT22;1453;42.708;23.282;2022-07-29T06:59:48;27.20;99.90
2889;DHT22;1453;42.708;23.282;2022-07-29T07:02:14;26.70;99.90
2889;DHT22;1453;42.708;23.282;2022-07-29T07:04:40;26.50;99.90
2889;DHT22;1453;42.708;23.282;2022-07-29T07:07:05;26.80;99.90
2889;DHT22;1453;42.708;23.282;2022-07-29T07:09:31;26.60;99.90
2889;DHT22;1453;42.708;23.282;2022-07-29T07:11:57;26.80;99.90
2889;DHT22;1453;42.708;23.282;2022-07-29T07:14:23;26.90;99.90
2889;DHT22;1453;42.708;23.282;2022-07-29T07:16:51;27.30;99.90
2889;DHT22;1453;42.708;23.282;2022-07-29T07:19:17;26.80;99.90
2889;DHT22;1453;42.708;23.282;2022-07-29T07:21:44;26.80;99.90
2889;DHT22;1453;42.708;23.282;2022-07-29T07:24:10;26.50;99.90
2889;DHT22;1453;42.708;23.282;2022-07-29T07:26:36;27.30;99.90
2889;DHT22;1453;42.708;23.282;2022-07-29T07:29:01;27.80;99.90
2889;DHT22;1453;42.708;23.282;2022-07-29T07:31:27;28.30;99.90
2889;DHT22;1453;42.708;23.282;2022-07-29T07:33:53;28.20;99.60
2889;DHT22;1453;42.708;23.282;2022-07-29T07:36:19;28.70;97.60
2889;DHT22;1453;42.708;23.282;2022-07-29T07:38:45;28.10;97.60
2889;DHT22;1453;42.708;23.282;2022-07-29T07:41:11;28.50;97.30
2889;DHT22;1453;42.708;23.282;2022-07-29T07:43:36;28.60;96.00
2889;DHT22;1453;42.708;23.282;2022-07-29T07:46:03;28.30;96.00
2889;DHT22;1453;42.708;23.282;2022-07-29T07:48:29;28.30;96.20
2889;DHT22;1453;42.708;23.282;2022-07-29T07:50:55;28.20;96.30
2889;DHT22;1453;42.708;23.282;2022-07-29T07:53:21;28.30;95.70
2889;DHT22;1453;42.708;23.282;2022-07-29T07:55:47;28.30;94.60
2889;DHT22;1453;42.708;23.282;2022-07-29T07:58:13;28.20;95.50
2889;DHT22;1453;42.708;23.282;2022-07-29T08:00:38;28.40;94.40
2889;DHT22;1453;42.708;23.282;2022-07-29T08:03:04;27.70;95.70
2889;DHT22;1453;42.708;23.282;2022-07-29T08:05:30;27.50;97.00
2889;DHT22;1453;42.708;23.282;2022-07-29T08:07:56;27.70;96.40
2889;DHT22;1453;42.708;23.282;2022-07-29T08:10:22;27.60;97.30
2889;DHT22;1453;42.708;23.282;2022-07-29T08:13:08;27.70;96.80
2889;DHT22;1453;42.708;23.282;2022-07-29T08:15:36;28.30;95.80
2889;DHT22;1453;42.708;23.282;2022-07-29T08:18:02;28.20;95.20
2889;DHT22;1453;42.708;23.282;2022-07-29T08:27:49;28.50;94.60
2889;DHT22;1453;42.708;23.282;2022-07-29T08:30:15;28.50;94.40
2889;DHT22;1453;42.708;23.282;2022-07-29T08:32:41;29.30;93.00
2889;DHT22;1453;42.708;23.282;2022-07-29T08:35:07;28.90;92.40
2889;DHT22;1453;42.708;23.282;2022-07-29T08:37:33;28.80;92.30
2889;DHT22;1453;42.708;23.282;2022-07-29T08:39:59;28.90;92.10
2889;DHT22;1453;42.708;23.282;2022-07-29T08:42:24;28.90;91.90
2889;DHT22;1453;42.708;23.282;2022-07-29T08:44:50;29.40;91.00
2889;DHT22;1453;42.708;23.282;2022-07-29T08:47:16;29.70;90.70
2889;DHT22;1453;42.708;23.282;2022-07-29T08:49:43;29.70;89.50
2889;DHT22;1453;42.708;23.282;2022-07-29T08:52:11;29.90;90.00
2889;DHT22;1453;42.708;23.282;2022-07-29T08:54:38;30.00;89.00
2889;DHT22;1453;42.708;23.282;2022-07-29T08:57:05;29.90;86.70
2889;DHT22;1453;42.708;23.282;2022-07-29T08:59:32;30.30;86.20
2889;DHT22;1453;42.708;23.282;2022-07-29T09:01:59;30.10;85.10
2889;DHT22;1453;42.708;23.282;2022-07-29T09:04:29;30.30;84.50
2889;DHT22;1453;42.708;23.282;2022-07-29T09:07:00;30.50;83.10
2889;DHT22;1453;42.708;23.282;2022-07-29T09:09:30;30.80;83.40
2889;DHT22;1453;42.708;23.282;2022-07-29T09:11:55;30.90;81.20
2889;DHT22;1453;42.708;23.282;2022-07-29T09:14:21;30.90;80.70
2889;DHT22;1453;42.708;23.282;2022-07-29T09:16:56;31.10;80.40
2889;DHT22;1453;42.708;23.282;2022-07-29T09:19:31;30.70;83.40
2889;DHT22;1453;42.708;23.282;2022-07-29T09:22:02;30.50;80.80
2889;DHT22;1453;42.708;23.282;2022-07-29T09:24:45;30.90;80.30
2889;DHT22;1453;42.708;23.282;2022-07-29T09:27:23;30.30;79.30
2889;DHT22;1453;42.708;23.282;2022-07-29T09:30:05;29.50;83.40
2889;DHT22;1453;42.708;23.282;2022-07-29T09:32:33;31.10;82.10
2889;DHT22;1453;42.708;23.282;2022-07-29T09:35:34;32.30;77.50
2889;DHT22;1453;42.708;23.282;2022-07-29T09:38:10;32.10;73.70
2889;DHT22;1453;42.708;23.282;2022-07-29T09:40:37;31.40;73.20
2889;DHT22;1453;42.708;23.282;2022-07-29T09:43:11;31.20;73.80
2889;DHT22;1453;42.708;23.282;2022-07-29T09:45:38;31.60;73.40
2889;DHT22;1453;42.708;23.282;2022-07-29T09:48:16;31.20;74.90
2889;DHT22;1453;42.708;23.282;2022-07-29T09:50:45;31.50;73.40
2889;DHT22;1453;42.708;23.282;2022-07-29T09:53:12;31.60;72.00
2889;DHT22;1453;42.708;23.282;2022-07-29T09:55:55;31.80;72.50
2889;DHT22;1453;42.708;23.282;2022-07-29T09:58:21;32.60;70.10
2889;DHT22;1453;42.708;23.282;2022-07-29T10:00:49;32.30;70.00
2889;DHT22;1453;42.708;23.282;2022-07-29T10:03:16;32.20;70.60
2889;DHT22;1453;42.708;23.282;2022-07-29T10:05:43;32.50;69.90
2889;DHT22;1453;42.708;23.282;2022-07-29T10:08:10;33.10;69.90
2889;DHT22;1453;42.708;23.282;2022-07-29T10:10:42;32.30;71.50
2889;DHT22;1453;42.708;23.282;2022-07-29T10:13:14;32.70;71.50
2889;DHT22;1453;42.708;23.282;2022-07-29T10:15:41;32.70;69.60
2889;DHT22;1453;42.708;23.282;2022-07-29T10:18:11;32.70;70.00
2889;DHT22;1453;42.708;23.282;2022-07-29T10:20:38;32.50;69.50
2889;DHT22;1453;42.708;23.282;2022-07-29T10:23:05;32.60;70.20
2889;DHT22;1453;42.708;23.282;2022-07-29T10:25:31;33.40;67.60
2889;DHT22;1453;42.708;23.282;2022-07-29T10:27:57;33.50;66.50
2889;DHT22;1453;42.708;23.282;2022-07-29T10:30:25;33.70;66.40
2889;DHT22;1453;42.708;23.282;2022-07-29T10:44:41;34.40;66.70
2889;DHT22;1453;42.708;23.282;2022-07-29T10:46:49;33.90;64.20
2889;DHT22;1453;42.708;23.282;2022-07-29T10:49:19;34.40;63.00
2889;DHT22;1453;42.708;23.282;2022-07-29T10:52:08;33.80;62.70
2889;DHT22;1453;42.708;23.282;2022-07-29T11:05:03;33.30;63.00
2889;DHT22;1453;42.708;23.282;2022-07-29T11:07:35;33.20;64.40
2889;DHT22;1453;42.708;23.282;2022-07-29T11:15:11;34.20;62.20
2889;DHT22;1453;42.708;23.282;2022-07-29T11:31:49;34.30;62.40
2889;DHT22;1453;42.708;23.282;2022-07-29T11:44:57;34.40;60.90
2889;DHT22;1453;42.708;23.282;2022-07-29T11:47:40;34.50;60.70
2889;DHT22;1453;42.708;23.282;2022-07-29T11:50:12;33.40;62.80
2889;DHT22;1453;42.708;23.282;2022-07-29T11:52:44;34.10;62.00
2889;DHT22;1453;42.708;23.282;2022-07-29T11:55:15;33.80;60.80
2889;DHT22;1453;42.708;23.282;2022-07-29T11:58:08;34.00;62.00
2889;DHT22;1453;42.708;23.282;2022-07-29T12:00:39;35.40;60.70
2889;DHT22;1453;42.708;23.282;2022-07-29T12:03:11;36.30;59.20
2889;DHT22;1453;42.708;23.282;2022-07-29T12:05:42;35.80;59.70
2889;DHT22;1453;42.708;23.282;2022-07-29T12:08:16;35.70;59.30
2889;DHT22;1453;42.708;23.282;2022-07-29T12:10:45;35.70;58.80
2889;DHT22;1453;42.708;23.282;2022-07-29T12:13:14;35.20;58.50
2889;DHT22;1453;42.708;23.282;2022-07-29T12:15:41;35.40;58.80
2889;DHT22;1453;42.708;23.282;2022-07-29T12:18:15;34.70;58.60
2889;DHT22;1453;42.708;23.282;2022-07-29T12:20:43;34.20;58.60
2889;DHT22;1453;42.708;23.282;2022-07-29T12:23:10;34.70;59.10
2889;DHT22;1453;42.708;23.282;2022-07-29T12:25:41;35.00;57.90
2889;DHT22;1453;42.708;23.282;2022-07-29T12:28:11;35.00;58.00
2889;DHT22;1453;42.708;23.282;2022-07-29T12:30:44;34.20;58.90
2889;DHT22;1453;42.708;23.282;2022-07-29T12:33:16;34.40;59.90
2889;DHT22;1453;42.708;23.282;2022-07-29T12:35:45;35.30;58.30
2889;DHT22;1453;42.708;23.282;2022-07-29T12:38:13;34.70;57.90
2889;DHT22;1453;42.708;23.282;2022-07-29T12:40:40;34.80;58.50
2889;DHT22;1453;42.708;23.282;2022-07-29T12:43:14;35.40;57.60
2889;DHT22;1453;42.708;23.282;2022-07-29T12:45:43;34.80;57.30
2889;DHT22;1453;42.708;23.282;2022-07-29T12:48:11;34.60;58.10
2889;DHT22;1453;42.708;23.282;2022-07-29T12:50:58;34.60;57.50
2889;DHT22;1453;42.708;23.282;2022-07-29T12:53:25;34.70;58.20
2889;DHT22;1453;42.708;23.282;2022-07-29T12:55:53;34.70;57.70
2889;DHT22;1453;42.708;23.282;2022-07-29T12:58:30;33.70;59.30
2889;DHT22;1453;42.708;23.282;2022-07-29T13:06:28;34.20;57.70
2889;DHT22;1453;42.708;23.282;2022-07-29T13:09:20;33.90;58.10
2889;DHT22;1453;42.708;23.282;2022-07-29T13:11:51;33.70;59.20
2889;DHT22;1453;42.708;23.282;2022-07-29T13:14:32;33.00;59.10
2889;DHT22;1453;42.708;23.282;2022-07-29T13:17:05;33.50;59.20
2889;DHT22;1453;42.708;23.282;2022-07-29T13:20:26;33.60;58.60
2889;DHT22;1453;42.708;23.282;2022-07-29T13:22:34;33.80;58.10
2889;DHT22;1453;42.708;23.282;2022-07-29T13:25:01;34.00;57.80
2889;DHT22;1453;42.708;23.282;2022-07-29T13:27:30;33.80;57.60
2889;DHT22;1453;42.708;23.282;2022-07-29T13:30:04;33.90;57.70
2889;DHT22;1453;42.708;23.282;2022-07-29T13:32:32;34.60;57.40
2889;DHT22;1453;42.708;23.282;2022-07-29T13:35:05;34.20;57.50
2889;DHT22;1453;42.708;23.282;2022-07-29T13:37:33;33.80;57.60
2889;DHT22;1453;42.708;23.282;2022-07-29T13:40:01;33.50;57.90
2889;DHT22;1453;42.708;23.282;2022-07-29T13:42:28;33.00;58.90
2889;DHT22;1453;42.708;23.282;2022-07-29T13:44:54;33.30;58.90
2889;DHT22;1453;42.708;23.282;2022-07-29T13:47:21;33.30;58.60
2889;DHT22;1453;42.708;23.282;2022-07-29T13:49:48;33.60;58.30
2889;DHT22;1453;42.708;23.282;2022-07-29T13:52:14;33.40;58.40
2889;DHT22;1453;42.708;23.282;2022-07-29T13:54:40;33.00;58.80
2889;DHT22;1453;42.708;23.282;2022-07-29T13:57:07;33.30;58.90
2889;DHT22;1453;42.708;23.282;2022-07-29T13:59:33;33.40;59.00
2889;DHT22;1453;42.708;23.282;2022-07-29T14:01:59;33.30;59.10
2889;DHT22;1453;42.708;23.282;2022-07-29T14:04:25;33.20;59.40
2889;DHT22;1453;42.708;23.282;2022-07-29T14:06:51;33.10;59.40
2889;DHT22;1453;42.708;23.282;2022-07-29T14:09:17;33.20;59.40
2889;DHT22;1453;42.708;23.282;2022-07-29T14:11:44;32.80;59.60
2889;DHT22;1453;42.708;23.282;2022-07-29T14:14:11;33.00;59.60
2889;DHT22;1453;42.708;23.282;2022-07-29T14:16:37;32.60;59.20
2889;DHT22;1453;42.708;23.282;2022-07-29T14:19:03;32.50;59.80
2889;DHT22;1453;42.708;23.282;2022-07-29T14:21:29;32.10;60.00
2889;DHT22;1453;42.708;23.282;2022-07-29T14:23:55;32.10;60.00
2889;DHT22;1453;42.708;23.282;2022-07-29T14:26:21;31.80;60.10
2889;DHT22;1453;42.708;23.282;2022-07-29T14:28:48;31.70;60.70
2889;DHT22;1453;42.708;23.282;2022-07-29T14:31:14;31.70;60.50
2889;DHT22;1453;42.708;23.282;2022-07-29T14:33:40;32.00;60.20
2889;DHT22;1453;42.708;23.282;2022-07-29T14:36:06;32.10;59.60
2889;DHT22;1453;42.708;23.282;2022-07-29T14:38:33;32.10;60.20
2889;DHT22;1453;42.708;23.282;2022-07-29T14:40:58;32.10;61.10
2889;DHT22;1453;42.708;23.282;2022-07-29T14:43:24;32.00;59.80
2889;DHT22;1453;42.708;23.282;2022-07-29T14:45:50;31.60;61.30
2889;DHT22;1453;42.708;23.282;2022-07-29T14:48:16;31.30;62.00
2889;DHT22;1453;42.708;23.282;2022-07-29T14:50:41;31.50;62.00
2889;DHT22;1453;42.708;23.282;2022-07-29T14:53:07;31.80;61.40
2889;DHT22;1453;42.708;23.282;2022-07-29T14:55:33;31.80;60.50
2889;DHT22;1453;42.708;23.282;2022-07-29T14:57:59;31.80;60.70
2889;DHT22;1453;42.708;23.282;2022-07-29T15:00:25;31.70;60.80
2889;DHT22;1453;42.708;23.282;2022-07-29T15:02:51;31.70;60.80
2889;DHT22;1453;42.708;23.282;2022-07-29T15:05:17;31.80;61.00
2889;DHT22;1453;42.708;23.282;2022-07-29T15:07:43;31.70;61.00
2889;DHT22;1453;42.708;23.282;2022-07-29T15:10:09;31.70;60.10
2889;DHT22;1453;42.708;23.282;2022-07-29T15:12:35;31.70;60.90
2889;DHT22;1453;42.708;23.282;2022-07-29T15:15:01;31.50;61.50
2889;DHT22;1453;42.708;23.282;2022-07-29T15:17:27;31.50;60.70
2889;DHT22;1453;42.708;23.282;2022-07-29T15:19:52;31.60;61.30
2889;DHT22;1453;42.708;23.282;2022-07-29T15:22:18;31.80;61.10
2889;DHT22;1453;42.708;23.282;2022-07-29T15:24:44;31.50;59.70
2889;DHT22;1453;42.708;23.282;2022-07-29T15:27:10;31.30;60.30
2889;DHT22;1453;42.708;23.282;2022-07-29T15:29:43;31.10;60.70
2889;DHT22;1453;42.708;23.282;2022-07-29T15:32:09;31.00;60.00
2889;DHT22;1453;42.708;23.282;2022-07-29T15:34:36;31.20;60.70
2889;DHT22;1453;42.708;23.282;2022-07-29T15:37:02;31.30;60.00
2889;DHT22;1453;42.708;23.282;2022-07-29T15:39:29;31.50;60.00
2889;DHT22;1453;42.708;23.282;2022-07-29T15:41:54;31.50;60.50
2889;DHT22;1453;42.708;23.282;2022-07-29T15:44:20;31.30;59.60
2889;DHT22;1453;42.708;23.282;2022-07-29T15:46:47;31.20;59.90
2889;DHT22;1453;42.708;23.282;2022-07-29T15:49:29;31.00;60.10
2889;DHT22;1453;42.708;23.282;2022-07-29T15:51:58;31.00;60.90
2889;DHT22;1453;42.708;23.282;2022-07-29T15:54:29;31.00;60.20
2889;DHT22;1453;42.708;23.282;2022-07-29T15:56:55;30.90;60.50
2889;DHT22;1453;42.708;23.282;2022-07-29T15:59:21;30.90;59.80
2889;DHT22;1453;42.708;23.282;2022-07-29T16:01:47;30.60;59.90
2889;DHT22;1453;42.708;23.282;2022-07-29T16:04:14;30.70;60.40
2889;DHT22;1453;42.708;23.282;2022-07-29T16:06:40;30.40;61.10
2889;DHT22;1453;42.708;23.282;2022-07-29T16:09:06;30.30;60.70
2889;DHT22;1453;42.708;23.282;2022-07-29T16:11:32;30.20;60.80
2889;DHT22;1453;42.708;23.282;2022-07-29T16:13:58;30.30;61.20
2889;DHT22;1453;42.708;23.282;2022-07-29T16:16:24;30.10;61.30
2889;DHT22;1453;42.708;23.282;2022-07-29T16:18:50;30.00;62.20
2889;DHT22;1453;42.708;23.282;2022-07-29T16:21:16;30.00;62.50
2889;DHT22;1453;42.708;23.282;2022-07-29T16:23:42;30.10;62.60
2889;DHT22;1453;42.708;23.282;2022-07-29T16:26:08;30.20;62.90
2889;DHT22;1453;42.708;23.282;2022-07-29T16:28:34;30.00;63.00
2889;DHT22;1453;42.708;23.282;2022-07-29T16:31:00;30.00;63.70
2889;DHT22;1453;42.708;23.282;2022-07-29T16:33:26;29.80;63.90
2889;DHT22;1453;42.708;23.282;2022-07-29T16:35:52;29.80;64.10
2889;DHT22;1453;42.708;23.282;2022-07-29T16:38:18;29.70;64.50
2889;DHT22;1453;42.708;23.282;2022-07-29T16:40:44;29.60;64.60
2889;DHT22;1453;42.708;23.282;2022-07-29T16:43:10;29.70;64.60
2889;DHT22;1453;42.708;23.282;2022-07-29T16:45:36;29.80;64.20
2889;DHT22;1453;42.708;23.282;2022-07-29T16:48:03;29.70;63.80
2889;DHT22;1453;42.708;23.282;2022-07-29T16:50:29;29.90;63.70
2889;DHT22;1453;42.708;23.282;2022-07-29T16:52:57;29.70;62.80
2889;DHT22;1453;42.708;23.282;2022-07-29T16:55:23;29.70;63.30
2889;DHT22;1453;42.708;23.282;2022-07-29T16:57:49;29.80;63.40
2889;DHT22;1453;42.708;23.282;2022-07-29T17:00:17;29.70;63.70
2889;DHT22;1453;42.708;23.282;2022-07-29T17:02:44;29.70;63.20
2889;DHT22;1453;42.708;23.282;2022-07-29T17:05:11;29.70;63.00
2889;DHT22;1453;42.708;23.282;2022-07-29T17:07:38;29.60;62.40
2889;DHT22;1453;42.708;23.282;2022-07-29T17:10:05;29.60;62.60
2889;DHT22;1453;42.708;23.282;2022-07-29T17:12:39;29.60;62.70